Time;durP1;ratioP1;P1;durP2;ratioP2;P2;SDS_P1;SDS_P2;PMS_P1;PMS_P2;Temp;Humidity;BMP_temperature;BMP_pressure;BME280_temperature;BME280_humidity;BME280_pressure;Samples;Min_cycle;Max_cycle;Signal;HPM_P1;HPM_P2
2023/06/08 00:00:05;;;;;;;10.63;6.38;;;;;;;;;;4951140;28;20692;-88
2023/06/08 00:02:37;;;;;;;7.72;5.70;;;;;;;;;;5021962;28;20239;-85
2023/06/08 00:05:04;;;;;;;6.43;5.75;;;;;;;;;;5008999;28;20311;-89
2023/06/08 00:07:40;;;;;;;10.77;5.97;;;;;;;;;;5028309;28;20228;-89
2023/06/08 00:10:26;;;;;;;9.35;5.90;;;;;;;;;;5017927;28;20278;-89
2023/06/08 00:13:06;;;;;;;8.55;5.82;;;;;;;;;;5020761;28;20224;-89
2023/06/08 00:15:48;;;;;;;9.23;5.90;;;;;;;;;;4997148;28;20224;-86
2023/06/08 00:18:15;;;;;;;8.63;6.13;;;;;;;;;;5023241;28;20295;-87
2023/06/08 00:20:51;;;;;;;7.20;6.03;;;;;;;;;;5030795;28;20232;-87
2023/06/08 00:23:38;;;;;;;9.30;6.60;;;;;;;;;;5024883;28;20224;-88
2023/06/08 00:26:03;;;;;;;9.63;6.07;;;;;;;;;;5026448;28;20240;-91
2023/06/08 00:28:29;;;;;;;9.98;6.65;;;;;;;;;;5023497;28;20201;-84
2023/06/08 00:30:58;;;;;;;8.90;6.60;;;;;;;;;;5019303;28;20558;-88
2023/06/08 00:33:24;;;;;;;10.55;6.28;;;;;;;;;;5007294;28;20221;-88
2023/06/08 00:36:04;;;;;;;9.45;6.75;;;;;;;;;;5026123;28;20220;-88
2023/06/08 00:38:39;;;;;;;9.73;6.65;;;;;;;;;;5035810;28;20231;-88
2023/06/08 00:41:16;;;;;;;10.63;6.82;;;;;;;;;;5022482;28;20221;-88
2023/06/08 00:43:45;;;;;;;11.93;6.95;;;;;;;;;;5015895;28;20728;-87
2023/06/08 00:46:13;;;;;;;12.50;7.50;;;;;;;;;;5025468;28;20228;-87
2023/06/08 00:48:40;;;;;;;11.35;6.72;;;;;;;;;;5014755;28;20215;-88
2023/06/08 00:51:06;;;;;;;9.75;7.25;;;;;;;;;;4999907;28;20208;-86
2023/06/08 00:53:33;;;;;;;9.07;7.00;;;;;;;;;;4994128;28;20232;-87
2023/06/08 00:56:01;;;;;;;10.40;7.63;;;;;;;;;;5000494;28;20215;-88
2023/06/08 00:58:29;;;;;;;11.32;7.60;;;;;;;;;;5008921;28;20599;-87
2023/06/08 01:01:03;;;;;;;11.82;7.50;;;;;;;;;;5019948;28;20235;-87
2023/06/08 01:03:35;;;;;;;10.05;7.72;;;;;;;;;;5007207;28;20228;-88
2023/06/08 01:06:12;;;;;;;11.53;8.30;;;;;;;;;;5028025;28;20232;-89
2023/06/08 01:09:11;;;;;;;9.90;7.40;;;;;;;;;;5068349;28;20221;-87
2023/06/08 01:11:49;;;;;;;13.50;8.33;;;;;;;;;;5043963;28;20232;-88
2023/06/08 01:14:15;;;;;;;10.95;7.78;;;;;;;;;;5024903;28;20227;-87
2023/06/08 01:16:55;;;;;;;11.43;8.50;;;;;;;;;;5030856;28;20219;-87
2023/06/08 01:19:28;;;;;;;10.93;8.20;;;;;;;;;;5022536;28;20222;-88
2023/06/08 01:22:05;;;;;;;11.60;8.53;;;;;;;;;;5016982;28;20220;-87
2023/06/08 01:28:15;;;;;;;9.27;8.23;;;;;;;;;;4947473;29;20261;-86
2023/06/08 01:30:52;;;;;;;10.45;9.35;;;;;;;;;;4923192;29;20268;-88
2023/06/08 01:33:37;;;;;;;14.77;9.40;;;;;;;;;;5036663;28;20235;-88
2023/06/08 01:36:35;;;;;;;12.80;9.43;;;;;;;;;;5018394;28;20227;-87
2023/06/08 01:39:36;;;;;;;13.83;9.00;;;;;;;;;;4992989;28;20697;-86
2023/06/08 01:42:58;;;;;;;13.23;9.85;;;;;;;;;;5011593;28;20208;-85
2023/06/08 01:45:26;;;;;;;14.63;10.00;;;;;;;;;;5020312;28;20258;-87
2023/06/08 01:48:13;;;;;;;13.03;9.43;;;;;;;;;;5012184;28;20220;-87
2023/06/08 01:50:39;;;;;;;11.57;9.53;;;;;;;;;;5030724;28;20700;-86
2023/06/08 01:53:05;;;;;;;14.57;9.77;;;;;;;;;;4994862;28;20223;-86
2023/06/08 01:55:33;;;;;;;11.83;10.60;;;;;;;;;;4992541;28;20303;-85
2023/06/08 01:57:59;;;;;;;13.83;10.13;;;;;;;;;;5009352;28;20253;-86
2023/06/08 02:00:25;;;;;;;14.80;10.10;;;;;;;;;;5022679;28;20220;-84
2023/06/08 02:02:51;;;;;;;11.43;10.20;;;;;;;;;;5006118;28;20232;-87
2023/06/08 02:05:20;;;;;;;12.33;11.00;;;;;;;;;;5025119;28;20232;-87
2023/06/08 02:07:48;;;;;;;15.40;11.53;;;;;;;;;;4993592;28;20318;-87
2023/06/08 02:10:14;;;;;;;13.27;10.93;;;;;;;;;;5004845;28;20295;-88
2023/06/08 02:12:39;;;;;;;15.67;11.37;;;;;;;;;;5020996;28;20220;-87
2023/06/08 02:15:06;;;;;;;14.13;11.10;;;;;;;;;;5035438;28;20240;-86
2023/06/08 02:17:33;;;;;;;14.17;11.30;;;;;;;;;;5005503;28;20232;-86
2023/06/08 02:20:05;;;;;;;14.67;11.17;;;;;;;;;;5021384;28;20213;-87
2023/06/08 02:22:35;;;;;;;15.43;10.97;;;;;;;;;;5026218;28;20220;-86
2023/06/08 02:25:01;;;;;;;17.87;12.17;;;;;;;;;;5038667;28;20254;-88
2023/06/08 02:27:27;;;;;;;17.13;11.37;;;;;;;;;;5004926;28;20274;-87
2023/06/08 02:29:54;;;;;;;14.50;11.37;;;;;;;;;;5021421;28;20220;-87
2023/06/08 02:32:23;;;;;;;16.13;11.27;;;;;;;;;;5009413;28;20222;-88
2023/06/08 02:34:58;;;;;;;14.23;11.83;;;;;;;;;;4990617;28;20216;-85
2023/06/08 02:37:26;;;;;;;16.07;11.03;;;;;;;;;;5038331;28;20230;-87
2023/06/08 02:39:52;;;;;;;14.00;11.63;;;;;;;;;;4978233;28;20244;-86
2023/06/08 02:42:21;;;;;;;13.30;11.90;;;;;;;;;;5021850;28;20300;-87
2023/06/08 02:44:49;;;;;;;16.27;12.40;;;;;;;;;;5036509;28;20220;-86
2023/06/08 02:47:16;;;;;;;18.00;13.30;;;;;;;;;;5015658;28;20221;-85
2023/06/08 02:49:47;;;;;;;16.37;12.37;;;;;;;;;;4994893;28;20219;-85
2023/06/08 02:52:12;;;;;;;17.13;13.53;;;;;;;;;;5040223;28;20220;-87
2023/06/08 02:54:38;;;;;;;18.80;13.30;;;;;;;;;;5038706;28;20227;-87
2023/06/08 02:57:07;;;;;;;18.00;13.20;;;;;;;;;;5005000;28;20723;-87
2023/06/08 02:59:41;;;;;;;17.43;13.40;;;;;;;;;;5013307;28;20272;-87
2023/06/08 03:02:10;;;;;;;14.73;13.07;;;;;;;;;;5006128;28;20297;-83
2023/06/08 03:04:43;;;;;;;19.07;14.07;;;;;;;;;;5047442;28;20205;-87
2023/06/08 03:07:15;;;;;;;17.93;13.90;;;;;;;;;;5036014;28;20224;-86
2023/06/08 03:09:46;;;;;;;18.80;13.87;;;;;;;;;;5033562;28;20224;-85
2023/06/08 03:12:19;;;;;;;16.37;14.00;;;;;;;;;;4981787;28;20219;-84
2023/06/08 03:14:48;;;;;;;19.23;15.10;;;;;;;;;;4992612;28;20212;-85
2023/06/08 03:17:20;;;;;;;19.50;14.63;;;;;;;;;;5012697;23;20222;-74
2023/06/08 03:19:46;;;;;;;17.30;15.30;;;;;;;;;;5022422;22;20239;-86
2023/06/08 03:22:29;;;;;;;19.23;15.23;;;;;;;;;;5000185;28;20227;-86
2023/06/08 03:25:07;;;;;;;21.90;15.87;;;;;;;;;;5027687;28;20227;-87
2023/06/08 03:27:35;;;;;;;19.50;16.00;;;;;;;;;;5009017;28;20228;-87
2023/06/08 03:30:11;;;;;;;25.13;15.57;;;;;;;;;;5014322;28;20212;-87
2023/06/08 03:32:48;;;;;;;22.67;16.80;;;;;;;;;;5019718;28;20222;-86
2023/06/08 03:35:18;;;;;;;20.63;16.50;;;;;;;;;;5019797;28;20263;-83
2023/06/08 03:37:47;;;;;;;21.90;16.40;;;;;;;;;;4994990;28;20228;-86
2023/06/08 03:40:14;;;;;;;20.60;16.67;;;;;;;;;;5010113;28;20212;-86
2023/06/08 03:42:44;;;;;;;20.20;16.70;;;;;;;;;;4988450;28;20236;-86
2023/06/08 03:45:10;;;;;;;22.57;17.03;;;;;;;;;;5007468;28;20595;-84
2023/06/08 03:47:38;;;;;;;19.53;17.43;;;;;;;;;;5030687;28;20220;-87
2023/06/08 03:50:08;;;;;;;23.80;17.77;;;;;;;;;;4997615;28;20279;-88
2023/06/08 03:52:34;;;;;;;20.27;17.20;;;;;;;;;;5010942;28;20216;-85
2023/06/08 03:55:00;;;;;;;21.03;17.07;;;;;;;;;;5011996;28;20231;-87
2023/06/08 04:00:25;;;;;;;22.17;17.70;;;;;;;;;;5031822;28;20231;-86
2023/06/08 04:02:58;;;;;;;19.77;17.70;;;;;;;;;;4992139;28;20248;-83
2023/06/08 04:05:23;;;;;;;19.10;17.07;;;;;;;;;;5016694;28;20250;-85
2023/06/08 04:07:51;;;;;;;21.50;17.83;;;;;;;;;;5006211;28;20228;-88
2023/06/08 04:10:17;;;;;;;20.87;18.00;;;;;;;;;;4999929;28;20220;-85
2023/06/08 04:12:43;;;;;;;25.43;19.60;;;;;;;;;;5012031;28;20260;-89
2023/06/08 04:15:10;;;;;;;22.87;19.73;;;;;;;;;;5000908;28;20220;-87
2023/06/08 04:17:41;;;;;;;25.27;19.87;;;;;;;;;;5001542;28;20227;-87
2023/06/08 04:20:11;;;;;;;29.40;20.80;;;;;;;;;;4999503;28;20221;-87
2023/06/08 04:22:40;;;;;;;27.73;20.30;;;;;;;;;;5033299;28;20208;-88
2023/06/08 04:25:06;;;;;;;23.63;19.83;;;;;;;;;;5004383;28;20216;-86
2023/06/08 04:27:45;;;;;;;26.57;20.87;;;;;;;;;;4998576;28;20220;-88
2023/06/08 04:30:13;;;;;;;26.33;21.57;;;;;;;;;;5030038;28;20275;-90
2023/06/08 04:32:38;;;;;;;25.20;21.53;;;;;;;;;;5012284;28;20238;-84
2023/06/08 04:35:05;;;;;;;27.63;21.97;;;;;;;;;;5036103;28;20235;-89
2023/06/08 04:37:36;;;;;;;24.43;21.93;;;;;;;;;;5008549;28;20238;-84
2023/06/08 04:40:03;;;;;;;28.23;21.97;;;;;;;;;;5021560;28;20212;-83
2023/06/08 04:42:39;;;;;;;27.53;21.87;;;;;;;;;;5039957;28;20230;-86
2023/06/08 04:45:11;;;;;;;27.23;22.60;;;;;;;;;;5022559;28;20208;-92
2023/06/08 04:47:47;;;;;;;30.23;23.97;;;;;;;;;;5042160;28;20212;-88
2023/06/08 04:50:13;;;;;;;25.83;21.73;;;;;;;;;;5009564;28;20223;-87
2023/06/08 04:52:45;;;;;;;28.23;22.83;;;;;;;;;;4997415;28;20280;-87
2023/06/08 04:55:14;;;;;;;27.10;22.30;;;;;;;;;;5000192;28;20266;-88
2023/06/08 04:57:45;;;;;;;31.13;22.80;;;;;;;;;;5041381;28;20227;-88
2023/06/08 05:00:15;;;;;;;27.52;21.35;;;;;;;;;;5030934;28;20223;-87
2023/06/08 05:02:44;;;;;;;24.33;21.33;;;;;;;;;;4998551;28;20311;-87
2023/06/08 05:05:30;;;;;;;25.85;21.15;;;;;;;;;;5010564;28;20219;-85
2023/06/08 05:07:56;;;;;;;25.23;21.67;;;;;;;;;;5011490;28;20227;-87
2023/06/08 05:10:21;;;;;;;23.83;20.40;;;;;;;;;;4992891;28;20220;-89
2023/06/08 05:12:47;;;;;;;25.15;20.38;;;;;;;;;;4990167;28;20222;-86
2023/06/08 05:15:13;;;;;;;23.98;20.75;;;;;;;;;;4993353;28;20241;-88
2023/06/08 05:17:38;;;;;;;24.08;19.25;;;;;;;;;;5007724;28;20228;-85
2023/06/08 05:20:05;;;;;;;23.73;20.20;;;;;;;;;;5020626;28;20240;-86
2023/06/08 05:22:33;;;;;;;26.70;20.63;;;;;;;;;;4985034;28;20219;-86
2023/06/08 05:24:59;;;;;;;23.30;20.85;;;;;;;;;;5012612;28;20232;-85
2023/06/08 05:27:46;;;;;;;24.30;18.75;;;;;;;;;;5022676;28;20228;-86
2023/06/08 05:30:12;;;;;;;21.10;18.88;;;;;;;;;;5007183;28;20220;-87
2023/06/08 05:32:40;;;;;;;21.23;17.35;;;;;;;;;;4998238;28;20292;-87
2023/06/08 05:35:07;;;;;;;20.73;18.08;;;;;;;;;;4990905;28;20220;-86
2023/06/08 05:37:38;;;;;;;21.23;17.17;;;;;;;;;;4987049;28;20267;-88
2023/06/08 05:40:04;;;;;;;19.13;17.13;;;;;;;;;;4995674;28;20240;-87
2023/06/08 05:42:30;;;;;;;20.52;18.42;;;;;;;;;;4999228;28;21254;-84
2023/06/08 05:44:55;;;;;;;21.38;17.30;;;;;;;;;;4988991;28;20225;-86
2023/06/08 05:47:26;;;;;;;21.65;17.15;;;;;;;;;;5001189;28;20235;-84
2023/06/08 05:49:51;;;;;;;20.38;17.73;;;;;;;;;;4996340;28;20220;-88
2023/06/08 05:52:19;;;;;;;20.23;16.88;;;;;;;;;;4994431;28;20269;-87
2023/06/08 05:54:45;;;;;;;20.02;17.48;;;;;;;;;;4994762;28;20231;-83
2023/06/08 05:57:15;;;;;;;19.38;17.30;;;;;;;;;;5002217;23;20228;-75
2023/06/08 05:59:45;;;;;;;18.55;16.65;;;;;;;;;;5025828;28;20221;-75
2023/06/08 06:02:11;;;;;;;21.55;17.52;;;;;;;;;;5020546;23;20291;-84
2023/06/08 06:04:37;;;;;;;19.08;16.58;;;;;;;;;;5031454;28;20225;-86
2023/06/08 06:07:07;;;;;;;19.13;15.30;;;;;;;;;;5033592;28;20252;-86
2023/06/08 06:09:32;;;;;;;18.92;14.93;;;;;;;;;;4978460;28;20229;-84
2023/06/08 06:11:59;;;;;;;18.35;14.55;;;;;;;;;;4991632;28;20208;-86
2023/06/08 06:14:32;;;;;;;16.48;14.65;;;;;;;;;;5000717;28;20300;-84
2023/06/08 06:16:58;;;;;;;18.55;13.85;;;;;;;;;;5024894;28;20229;-87
2023/06/08 06:19:25;;;;;;;16.67;14.15;;;;;;;;;;5013571;28;20358;-83
2023/06/08 06:21:51;;;;;;;17.52;13.85;;;;;;;;;;5007633;28;20707;-85
2023/06/08 06:24:21;;;;;;;15.10;13.50;;;;;;;;;;4999362;28;20208;-87
2023/06/08 06:26:47;;;;;;;16.48;14.20;;;;;;;;;;5001109;28;20228;-89
2023/06/08 06:29:15;;;;;;;14.85;13.30;;;;;;;;;;5010405;28;20216;-85
2023/06/08 06:31:41;;;;;;;17.83;13.55;;;;;;;;;;4991903;28;20233;-87
2023/06/08 06:34:06;;;;;;;15.15;13.55;;;;;;;;;;4999212;28;20295;-87
2023/06/08 06:36:36;;;;;;;15.45;13.60;;;;;;;;;;4992924;28;20224;-87
2023/06/08 06:39:02;;;;;;;14.38;12.90;;;;;;;;;;4996082;28;20228;-86
2023/06/08 06:41:28;;;;;;;13.75;12.35;;;;;;;;;;4992192;28;20232;-88
2023/06/08 06:43:55;;;;;;;12.73;11.38;;;;;;;;;;4999960;28;20220;-86
2023/06/08 06:46:23;;;;;;;15.00;11.73;;;;;;;;;;5005360;28;20220;-87
2023/06/08 06:48:49;;;;;;;13.30;11.90;;;;;;;;;;4997006;28;20222;-88
2023/06/08 06:51:17;;;;;;;12.02;10.95;;;;;;;;;;4973045;28;20577;-87
2023/06/08 06:53:42;;;;;;;11.93;10.82;;;;;;;;;;5001085;28;20604;-86
2023/06/08 06:56:08;;;;;;;12.63;11.20;;;;;;;;;;4992828;28;20235;-84
2023/06/08 06:58:36;;;;;;;14.02;10.70;;;;;;;;;;4990920;28;20575;-86
2023/06/08 07:01:01;;;;;;;13.07;10.65;;;;;;;;;;4993954;28;20240;-86
2023/06/08 07:03:29;;;;;;;12.20;10.68;;;;;;;;;;5011573;28;20243;-87
2023/06/08 07:05:58;;;;;;;11.77;10.68;;;;;;;;;;5003479;28;20247;-85
2023/06/08 07:08:27;;;;;;;10.73;9.63;;;;;;;;;;4996697;28;20217;-86
2023/06/08 07:10:53;;;;;;;14.85;9.35;;;;;;;;;;5003530;28;20220;-87
2023/06/08 07:13:19;;;;;;;11.40;10.25;;;;;;;;;;5003317;28;20240;-84
2023/06/08 07:15:44;;;;;;;11.55;10.40;;;;;;;;;;4992650;28;20217;-88
2023/06/08 07:18:10;;;;;;;12.60;10.23;;;;;;;;;;4994114;28;20213;-87
2023/06/08 07:20:36;;;;;;;14.70;9.90;;;;;;;;;;4998074;28;20225;-84
2023/06/08 07:23:01;;;;;;;11.38;9.93;;;;;;;;;;5029524;28;20228;-84
2023/06/08 07:25:31;;;;;;;10.77;9.57;;;;;;;;;;4986213;28;20678;-87
2023/06/08 07:27:57;;;;;;;11.18;8.70;;;;;;;;;;5025137;28;20225;-86
2023/06/08 07:30:22;;;;;;;10.57;9.27;;;;;;;;;;5009506;28;20566;-85
2023/06/08 07:32:51;;;;;;;11.75;8.70;;;;;;;;;;4997200;28;20278;-85
2023/06/08 07:35:18;;;;;;;12.32;8.57;;;;;;;;;;5029826;28;20224;-86
2023/06/08 07:37:48;;;;;;;10.85;8.65;;;;;;;;;;5010091;28;20241;-86
2023/06/08 07:40:20;;;;;;;10.75;8.27;;;;;;;;;;5025720;28;20217;-85
2023/06/08 07:42:53;;;;;;;8.52;7.68;;;;;;;;;;5043929;28;20276;-87
2023/06/08 07:45:18;;;;;;;8.10;7.30;;;;;;;;;;4994985;28;20629;-88
2023/06/08 07:47:44;;;;;;;11.20;7.38;;;;;;;;;;4996762;28;20235;-86
2023/06/08 07:50:10;;;;;;;7.63;6.88;;;;;;;;;;4993952;28;20218;-87
2023/06/08 07:52:39;;;;;;;8.50;6.72;;;;;;;;;;4992163;28;20230;-87
2023/06/08 07:55:05;;;;;;;7.30;6.53;;;;;;;;;;5016496;28;20226;-86
2023/06/08 07:57:31;;;;;;;7.60;6.68;;;;;;;;;;5015274;28;20225;-89
2023/06/08 07:59:57;;;;;;;7.47;6.57;;;;;;;;;;5017564;28;21032;-88
2023/06/08 08:02:22;;;;;;;7.55;6.68;;;;;;;;;;4997270;28;20229;-90
2023/06/08 08:04:48;;;;;;;7.13;6.32;;;;;;;;;;4978447;28;20226;-88
2023/06/08 08:07:18;;;;;;;7.95;6.40;;;;;;;;;;5013808;28;20237;-87
2023/06/08 08:09:47;;;;;;;7.13;6.43;;;;;;;;;;4992669;28;20213;-85
2023/06/08 08:12:12;;;;;;;7.57;6.25;;;;;;;;;;4997392;28;20558;-87
2023/06/08 08:14:41;;;;;;;6.43;5.80;;;;;;;;;;4995484;28;20259;-88
2023/06/08 08:17:09;;;;;;;6.65;5.78;;;;;;;;;;5011072;28;20259;-89
2023/06/08 08:19:39;;;;;;;6.13;5.63;;;;;;;;;;5010536;28;20304;-88
2023/06/08 08:22:05;;;;;;;7.18;5.78;;;;;;;;;;5018074;28;20221;-87
2023/06/08 08:24:34;;;;;;;7.97;5.97;;;;;;;;;;5003515;28;20650;-87
2023/06/08 08:27:00;;;;;;;6.35;5.70;;;;;;;;;;5026391;28;20289;-86
2023/06/08 08:29:25;;;;;;;7.07;5.32;;;;;;;;;;5031994;28;20228;-87
2023/06/08 08:31:53;;;;;;;7.70;5.38;;;;;;;;;;4987054;28;20229;-87
2023/06/08 08:34:19;;;;;;;5.57;5.07;;;;;;;;;;5008114;28;20229;-88
2023/06/08 08:36:47;;;;;;;9.02;5.07;;;;;;;;;;4991690;28;20268;-87
2023/06/08 08:39:15;;;;;;;6.45;5.18;;;;;;;;;;5011692;28;20232;-87
2023/06/08 08:41:46;;;;;;;6.32;5.10;;;;;;;;;;5015164;28;20221;-86
2023/06/08 08:44:15;;;;;;;9.18;5.32;;;;;;;;;;4988331;28;20312;-86
2023/06/08 08:46:43;;;;;;;5.85;4.95;;;;;;;;;;5029831;28;20256;-87
2023/06/08 08:49:15;;;;;;;8.30;5.10;;;;;;;;;;5013956;28;20225;-88
2023/06/08 08:51:52;;;;;;;5.55;4.90;;;;;;;;;;5016400;28;20283;-87
2023/06/08 08:54:18;;;;;;;6.28;4.88;;;;;;;;;;4985192;28;20657;-89
2023/06/08 08:56:44;;;;;;;6.07;4.63;;;;;;;;;;5002910;28;20304;-89
2023/06/08 08:59:18;;;;;;;5.03;4.53;;;;;;;;;;4983689;28;20717;-88
2023/06/08 09:01:57;;;;;;;5.85;5.00;;;;;;;;;;4988452;28;20652;-87
2023/06/08 09:04:23;;;;;;;5.25;4.47;;;;;;;;;;5029678;28;22444;-84
2023/06/08 09:07:07;;;;;;;5.65;4.63;;;;;;;;;;5030644;28;20597;-86
2023/06/08 09:09:33;;;;;;;5.20;4.35;;;;;;;;;;5010810;28;20217;-86
2023/06/08 09:12:03;;;;;;;5.30;4.75;;;;;;;;;;5044698;28;20199;-84
2023/06/08 09:14:30;;;;;;;6.40;5.07;;;;;;;;;;5034353;28;20221;-88
2023/06/08 09:17:06;;;;;;;8.70;7.90;;;;;;;;;;5004721;28;20287;-86
2023/06/08 09:19:38;;;;;;;6.57;4.70;;;;;;;;;;5024221;28;20220;-86
2023/06/08 09:22:04;;;;;;;5.50;4.90;;;;;;;;;;5009252;28;20234;-87
2023/06/08 09:24:29;;;;;;;5.85;4.90;;;;;;;;;;4982180;28;20217;-85
2023/06/08 09:26:58;;;;;;;6.30;4.78;;;;;;;;;;5001040;28;20245;-86
2023/06/08 09:29:40;;;;;;;5.40;4.90;;;;;;;;;;5001325;28;20217;-87
2023/06/08 09:32:12;;;;;;;4.88;4.38;;;;;;;;;;5036172;28;20217;-88
2023/06/08 09:34:53;;;;;;;5.75;5.10;;;;;;;;;;5007030;28;20315;-86
2023/06/08 09:37:29;;;;;;;6.05;4.57;;;;;;;;;;5033608;28;20220;-84
2023/06/08 09:40:00;;;;;;;5.13;4.60;;;;;;;;;;5013628;28;20220;-84
2023/06/08 09:42:41;;;;;;;5.30;4.85;;;;;;;;;;5012688;28;20225;-87
2023/06/08 09:45:10;;;;;;;5.05;4.55;;;;;;;;;;5012025;28;20228;-87
2023/06/08 09:47:36;;;;;;;6.82;4.60;;;;;;;;;;4991384;28;20284;-88
2023/06/08 09:50:01;;;;;;;9.75;5.25;;;;;;;;;;4990924;28;20227;-88
2023/06/08 09:52:27;;;;;;;4.82;4.32;;;;;;;;;;4988593;28;20228;-88
2023/06/08 09:54:55;;;;;;;5.38;4.60;;;;;;;;;;5013753;28;20228;-89
2023/06/08 09:57:21;;;;;;;4.93;4.47;;;;;;;;;;5010096;28;20228;-90
2023/06/08 09:59:52;;;;;;;5.80;4.38;;;;;;;;;;4998003;28;20362;-78
2023/06/08 10:02:33;;;;;;;6.85;4.55;;;;;;;;;;5019957;28;20690;-79
2023/06/08 10:05:04;;;;;;;6.88;4.80;;;;;;;;;;4982485;28;20341;-79
2023/06/08 10:07:33;;;;;;;11.18;4.82;;;;;;;;;;4966840;28;20228;-79
2023/06/08 10:10:05;;;;;;;5.57;4.85;;;;;;;;;;5017687;28;20220;-80
2023/06/08 10:12:31;;;;;;;5.18;4.68;;;;;;;;;;4999468;28;20221;-86
2023/06/08 10:14:57;;;;;;;5.22;4.78;;;;;;;;;;4992762;28;20257;-86
2023/06/08 10:17:27;;;;;;;7.97;5.43;;;;;;;;;;4989813;28;20224;-87
2023/06/08 10:19:54;;;;;;;5.82;5.32;;;;;;;;;;4989428;28;20315;-87
2023/06/08 10:22:22;;;;;;;6.15;5.55;;;;;;;;;;5012541;28;20227;-87
2023/06/08 10:24:50;;;;;;;6.55;5.95;;;;;;;;;;4994762;28;21040;-85
2023/06/08 10:27:24;;;;;;;7.18;6.47;;;;;;;;;;4989589;28;20212;-87
2023/06/08 10:29:57;;;;;;;8.27;6.53;;;;;;;;;;5009724;28;20240;-86
2023/06/08 10:32:33;;;;;;;7.35;6.63;;;;;;;;;;5006597;28;20232;-85
2023/06/08 10:35:01;;;;;;;7.47;5.78;;;;;;;;;;5030425;28;20860;-84
2023/06/08 10:37:34;;;;;;;7.43;6.20;;;;;;;;;;5003907;28;20221;-86
2023/06/08 10:40:11;;;;;;;6.65;6.05;;;;;;;;;;5004744;28;20287;-86
2023/06/08 10:42:37;;;;;;;6.05;5.50;;;;;;;;;;5002647;28;20311;-88
2023/06/08 10:45:04;;;;;;;7.80;6.25;;;;;;;;;;4998027;28;20223;-86
2023/06/08 10:47:31;;;;;;;7.20;6.10;;;;;;;;;;5005091;28;20240;-84
2023/06/08 10:50:03;;;;;;;6.68;6.03;;;;;;;;;;4993026;28;20228;-85
2023/06/08 10:52:42;;;;;;;6.63;5.93;;;;;;;;;;4996620;28;20231;-87
2023/06/08 10:55:11;;;;;;;8.27;6.20;;;;;;;;;;5037231;28;20222;-86
2023/06/08 10:57:43;;;;;;;7.00;6.30;;;;;;;;;;5000776;28;20312;-87
2023/06/08 11:00:25;;;;;;;7.05;5.65;;;;;;;;;;5013955;28;20232;-85
2023/06/08 11:03:00;;;;;;;6.65;6.05;;;;;;;;;;5037265;28;21021;-83
2023/06/08 11:05:31;;;;;;;7.00;6.30;;;;;;;;;;5004221;28;20284;-86
2023/06/08 11:08:00;;;;;;;6.57;6.00;;;;;;;;;;4993984;28;20236;-87
2023/06/08 11:10:25;;;;;;;8.02;5.97;;;;;;;;;;4999122;28;20212;-86
2023/06/08 11:12:54;;;;;;;6.45;5.85;;;;;;;;;;5021766;28;20217;-87
2023/06/08 11:15:24;;;;;;;7.13;6.32;;;;;;;;;;5051454;28;20216;-84
2023/06/08 11:17:53;;;;;;;6.38;5.82;;;;;;;;;;5018313;28;20236;-84
2023/06/08 11:20:26;;;;;;;6.63;6.10;;;;;;;;;;5000879;28;20255;-86
2023/06/08 11:22:56;;;;;;;7.53;5.88;;;;;;;;;;5014206;28;20221;-84
2023/06/08 11:25:22;;;;;;;6.57;5.90;;;;;;;;;;5052076;28;20216;-87
2023/06/08 11:27:52;;;;;;;6.88;6.18;;;;;;;;;;5012925;28;20213;-86
2023/06/08 11:30:21;;;;;;;6.05;5.55;;;;;;;;;;4997879;28;20315;-87
2023/06/08 11:32:50;;;;;;;6.47;5.88;;;;;;;;;;5001030;28;20338;-85
2023/06/08 11:35:17;;;;;;;7.40;5.70;;;;;;;;;;4998230;28;20224;-87
2023/06/08 11:37:43;;;;;;;8.40;5.82;;;;;;;;;;5015370;28;20221;-85
2023/06/08 11:40:12;;;;;;;6.32;5.18;;;;;;;;;;5024623;28;20210;-85
2023/06/08 11:42:41;;;;;;;5.63;5.20;;;;;;;;;;4990962;28;20230;-88
2023/06/08 11:45:18;;;;;;;5.63;5.15;;;;;;;;;;4982616;28;20272;-85
2023/06/08 11:47:46;;;;;;;5.95;5.35;;;;;;;;;;5024643;28;20227;-85
2023/06/08 11:50:12;;;;;;;8.25;5.50;;;;;;;;;;4986450;28;20213;-88
2023/06/08 11:52:42;;;;;;;7.15;5.53;;;;;;;;;;5021368;28;20224;-86
2023/06/08 11:55:17;;;;;;;6.53;5.70;;;;;;;;;;5014578;28;20319;-88
2023/06/08 11:58:00;;;;;;;6.57;6.07;;;;;;;;;;4987081;28;20229;-86
2023/06/08 12:00:26;;;;;;;7.82;5.80;;;;;;;;;;5015881;28;20221;-86
2023/06/08 12:02:52;;;;;;;6.18;5.65;;;;;;;;;;4999004;28;20929;-87
2023/06/08 12:05:22;;;;;;;6.10;5.60;;;;;;;;;;5009903;28;20271;-89
2023/06/08 12:08:10;;;;;;;6.15;5.65;;;;;;;;;;5005212;28;20459;-86
2023/06/08 12:10:43;;;;;;;7.63;6.40;;;;;;;;;;4994480;28;20236;-86
2023/06/08 12:13:10;;;;;;;6.43;5.88;;;;;;;;;;5011778;28;20233;-86
2023/06/08 12:15:58;;;;;;;6.40;5.80;;;;;;;;;;5021051;28;20603;-85
2023/06/08 12:18:24;;;;;;;6.47;5.78;;;;;;;;;;5014099;28;20309;-82
2023/06/08 12:20:55;;;;;;;7.22;6.13;;;;;;;;;;5015349;28;20330;-86
2023/06/08 12:23:23;;;;;;;6.53;5.90;;;;;;;;;;4994164;28;20554;-83
2023/06/08 12:25:51;;;;;;;6.57;6.07;;;;;;;;;;5012439;28;20221;-86
2023/06/08 12:28:22;;;;;;;6.43;5.82;;;;;;;;;;5005073;28;20225;-85
2023/06/08 12:30:50;;;;;;;8.00;6.40;;;;;;;;;;4992245;28;20225;-82
2023/06/08 12:33:20;;;;;;;7.40;6.30;;;;;;;;;;5025195;28;20225;-85
2023/06/08 12:35:49;;;;;;;6.43;5.80;;;;;;;;;;5041513;28;20761;-87
2023/06/08 12:38:16;;;;;;;6.47;5.88;;;;;;;;;;5020571;28;20670;-85
2023/06/08 12:40:47;;;;;;;6.40;5.85;;;;;;;;;;5020597;28;20232;-85
2023/06/08 12:43:19;;;;;;;6.80;6.18;;;;;;;;;;5011910;28;20227;-87
2023/06/08 12:45:48;;;;;;;6.45;5.90;;;;;;;;;;4999067;28;20252;-86
2023/06/08 12:48:14;;;;;;;6.30;5.80;;;;;;;;;;5028548;28;20221;-86
2023/06/08 12:50:42;;;;;;;6.45;5.82;;;;;;;;;;4984075;28;20706;-86
2023/06/08 12:53:08;;;;;;;6.38;5.82;;;;;;;;;;4998066;28;20218;-86
2023/06/08 12:55:36;;;;;;;6.53;5.68;;;;;;;;;;5004968;28;20624;-86
2023/06/08 12:58:01;;;;;;;7.45;6.15;;;;;;;;;;5015408;28;20233;-88
2023/06/08 13:00:33;;;;;;;7.13;5.93;;;;;;;;;;5036118;28;20224;-82
2023/06/08 13:02:58;;;;;;;7.10;6.03;;;;;;;;;;5006066;28;20218;-88
2023/06/08 13:05:25;;;;;;;6.45;5.95;;;;;;;;;;5027279;28;20220;-86
2023/06/08 13:07:50;;;;;;;6.70;6.20;;;;;;;;;;4996620;28;20229;-86
2023/06/08 13:10:22;;;;;;;6.38;5.78;;;;;;;;;;5011575;28;20271;-86
2023/06/08 13:12:50;;;;;;;6.93;5.63;;;;;;;;;;5016360;28;20686;-87
2023/06/08 13:15:18;;;;;;;6.95;6.03;;;;;;;;;;5034540;28;20278;-85
2023/06/08 13:17:46;;;;;;;6.85;5.60;;;;;;;;;;5052278;28;20245;-87
2023/06/08 13:20:14;;;;;;;6.43;5.82;;;;;;;;;;5022043;28;20232;-85
2023/06/08 13:22:42;;;;;;;6.20;5.70;;;;;;;;;;5003922;28;20327;-87
2023/06/08 13:25:08;;;;;;;6.47;5.88;;;;;;;;;;4995091;28;20219;-86
2023/06/08 13:27:36;;;;;;;6.60;5.72;;;;;;;;;;4984698;28;20304;-87
2023/06/08 13:30:02;;;;;;;6.07;5.53;;;;;;;;;;5031988;28;20216;-87
2023/06/08 13:32:30;;;;;;;6.38;5.43;;;;;;;;;;5006690;28;20236;-85
2023/06/08 13:34:56;;;;;;;7.75;5.75;;;;;;;;;;5009456;28;20217;-85
2023/06/08 13:37:21;;;;;;;6.03;5.53;;;;;;;;;;4992720;28;20217;-84
2023/06/08 13:39:49;;;;;;;6.95;5.68;;;;;;;;;;5007948;28;20216;-84
2023/06/08 13:42:17;;;;;;;5.80;5.20;;;;;;;;;;5025334;28;20299;-83
2023/06/08 13:44:46;;;;;;;6.00;5.50;;;;;;;;;;5020701;28;20225;-86
2023/06/08 13:47:12;;;;;;;6.00;5.40;;;;;;;;;;5013199;28;20316;-85
2023/06/08 13:49:39;;;;;;;5.00;4.50;;;;;;;;;;4992653;28;20948;-85
2023/06/08 13:52:05;;;;;;;4.80;4.40;;;;;;;;;;5027836;28;20214;-80
2023/06/08 13:54:30;;;;;;;7.07;4.70;;;;;;;;;;4993075;28;20244;-83
2023/06/08 13:56:58;;;;;;;5.90;4.38;;;;;;;;;;5014600;28;20295;-84
2023/06/08 13:59:24;;;;;;;4.65;4.25;;;;;;;;;;4997653;28;20272;-85
2023/06/08 14:01:50;;;;;;;5.43;4.32;;;;;;;;;;4997233;28;20225;-86
2023/06/08 14:04:15;;;;;;;4.20;3.90;;;;;;;;;;5024758;28;20217;-86
2023/06/08 14:06:42;;;;;;;4.68;4.28;;;;;;;;;;4996876;28;20225;-85
2023/06/08 14:09:09;;;;;;;5.15;4.38;;;;;;;;;;5008422;28;20197;-79
2023/06/08 14:11:37;;;;;;;4.85;4.45;;;;;;;;;;5019206;28;20218;-86
2023/06/08 14:14:02;;;;;;;4.78;4.38;;;;;;;;;;5000179;28;20287;-83
2023/06/08 14:16:30;;;;;;;4.70;4.30;;;;;;;;;;5020800;28;20692;-85
2023/06/08 14:18:56;;;;;;;4.97;4.57;;;;;;;;;;5011409;28;20694;-86
2023/06/08 14:21:26;;;;;;;5.82;4.70;;;;;;;;;;4995870;28;20224;-84
2023/06/08 14:23:51;;;;;;;5.68;5.18;;;;;;;;;;5003269;28;20699;-85
2023/06/08 14:26:19;;;;;;;5.35;4.95;;;;;;;;;;4991605;28;20231;-86
2023/06/08 14:28:47;;;;;;;5.38;4.88;;;;;;;;;;4996212;28;20723;-86
2023/06/08 14:31:15;;;;;;;6.18;4.45;;;;;;;;;;5009740;28;20217;-87
2023/06/08 14:33:45;;;;;;;4.45;4.10;;;;;;;;;;4999488;28;20225;-85
2023/06/08 14:36:11;;;;;;;4.97;4.50;;;;;;;;;;5022956;28;20220;-82
2023/06/08 14:38:39;;;;;;;5.90;5.40;;;;;;;;;;5011210;28;20216;-87
2023/06/08 14:41:04;;;;;;;6.20;5.60;;;;;;;;;;5007313;28;20219;-87
2023/06/08 14:43:32;;;;;;;6.30;5.75;;;;;;;;;;4996113;28;20224;-86
2023/06/08 14:45:58;;;;;;;5.85;5.40;;;;;;;;;;5023399;28;20217;-83
2023/06/08 14:48:26;;;;;;;6.10;5.50;;;;;;;;;;5009464;28;20228;-85
2023/06/08 14:50:51;;;;;;;6.00;5.43;;;;;;;;;;5021730;28;20959;-85